sensor_id;sensor_type;location;lat;lon;timestamp;P1;durP1;ratioP1;P2;durP2;ratioP2
12986;SDS011;58897;51.960;5.582;2024-01-06T00:00:36;13.93;;;6.30;;
12986;SDS011;58897;51.960;5.582;2024-01-06T00:03:06;14.27;;;6.03;;
12986;SDS011;58897;51.960;5.582;2024-01-06T00:05:33;16.20;;;6.13;;
12986;SDS011;58897;51.960;5.582;2024-01-06T00:08:00;13.97;;;6.57;;
12986;SDS011;58897;51.960;5.582;2024-01-06T00:10:27;16.50;;;6.70;;
12986;SDS011;58897;51.960;5.582;2024-01-06T00:12:54;17.00;;;6.77;;
12986;SDS011;58897;51.960;5.582;2024-01-06T00:15:21;12.17;;;5.80;;
12986;SDS011;58897;51.960;5.582;2024-01-06T00:17:48;12.97;;;6.30;;
12986;SDS011;58897;51.960;5.582;2024-01-06T00:20:15;11.90;;;5.50;;
12986;SDS011;58897;51.960;5.582;2024-01-06T00:22:44;18.53;;;7.27;;
12986;SDS011;58897;51.960;5.582;2024-01-06T00:25:11;16.33;;;6.70;;
12986;SDS011;58897;51.960;5.582;2024-01-06T00:27:38;13.23;;;6.30;;
12986;SDS011;58897;51.960;5.582;2024-01-06T00:30:05;14.37;;;5.90;;
12986;SDS011;58897;51.960;5.582;2024-01-06T00:32:33;14.67;;;5.83;;
12986;SDS011;58897;51.960;5.582;2024-01-06T00:35:03;11.03;;;5.27;;
12986;SDS011;58897;51.960;5.582;2024-01-06T00:37:30;12.40;;;5.57;;
12986;SDS011;58897;51.960;5.582;2024-01-06T00:39:57;12.70;;;5.30;;
12986;SDS011;58897;51.960;5.582;2024-01-06T00:42:23;12.10;;;5.43;;
12986;SDS011;58897;51.960;5.582;2024-01-06T00:44:50;11.13;;;4.87;;
12986;SDS011;58897;51.960;5.582;2024-01-06T00:47:17;11.77;;;5.30;;
12986;SDS011;58897;51.960;5.582;2024-01-06T00:49:44;15.43;;;6.13;;
12986;SDS011;58897;51.960;5.582;2024-01-06T00:52:12;12.70;;;5.40;;
12986;SDS011;58897;51.960;5.582;2024-01-06T00:54:38;15.43;;;5.77;;
12986;SDS011;58897;51.960;5.582;2024-01-06T00:57:05;9.70;;;4.67;;
12986;SDS011;58897;51.960;5.582;2024-01-06T00:59:32;10.70;;;5.00;;
12986;SDS011;58897;51.960;5.582;2024-01-06T01:01:59;12.77;;;5.47;;
12986;SDS011;58897;51.960;5.582;2024-01-06T01:04:26;16.17;;;6.20;;
12986;SDS011;58897;51.960;5.582;2024-01-06T01:06:56;12.50;;;5.57;;
12986;SDS011;58897;51.960;5.582;2024-01-06T01:09:23;14.13;;;5.47;;
12986;SDS011;58897;51.960;5.582;2024-01-06T01:11:50;12.90;;;5.03;;
12986;SDS011;58897;51.960;5.582;2024-01-06T01:14:17;12.47;;;5.03;;
12986;SDS011;58897;51.960;5.582;2024-01-06T01:16:45;13.50;;;5.30;;
12986;SDS011;58897;51.960;5.582;2024-01-06T01:19:12;11.23;;;4.63;;
12986;SDS011;58897;51.960;5.582;2024-01-06T01:21:39;9.23;;;4.20;;
12986;SDS011;58897;51.960;5.582;2024-01-06T01:24:06;9.27;;;4.30;;
12986;SDS011;58897;51.960;5.582;2024-01-06T01:26:36;9.27;;;4.43;;
12986;SDS011;58897;51.960;5.582;2024-01-06T01:29:08;10.20;;;4.30;;
12986;SDS011;58897;51.960;5.582;2024-01-06T01:31:43;8.93;;;4.20;;
12986;SDS011;58897;51.960;5.582;2024-01-06T01:34:10;7.73;;;4.30;;
12986;SDS011;58897;51.960;5.582;2024-01-06T01:36:40;9.30;;;3.87;;
12986;SDS011;58897;51.960;5.582;2024-01-06T01:39:08;7.80;;;4.10;;
12986;SDS011;58897;51.960;5.582;2024-01-06T01:41:35;7.57;;;3.30;;
12986;SDS011;58897;51.960;5.582;2024-01-06T01:44:05;8.30;;;4.27;;
12986;SDS011;58897;51.960;5.582;2024-01-06T01:46:33;12.80;;;4.97;;
12986;SDS011;58897;51.960;5.582;2024-01-06T01:49:04;9.13;;;4.40;;
12986;SDS011;58897;51.960;5.582;2024-01-06T01:51:34;10.33;;;4.20;;
12986;SDS011;58897;51.960;5.582;2024-01-06T01:54:05;8.83;;;4.03;;
12986;SDS011;58897;51.960;5.582;2024-01-06T01:56:35;9.60;;;4.47;;
12986;SDS011;58897;51.960;5.582;2024-01-06T01:59:05;8.50;;;3.83;;
12986;SDS011;58897;51.960;5.582;2024-01-06T02:01:39;13.37;;;5.23;;
12986;SDS011;58897;51.960;5.582;2024-01-06T02:04:07;12.00;;;4.90;;
12986;SDS011;58897;51.960;5.582;2024-01-06T02:06:38;10.63;;;5.23;;
12986;SDS011;58897;51.960;5.582;2024-01-06T02:09:04;11.23;;;6.00;;
12986;SDS011;58897;51.960;5.582;2024-01-06T02:11:32;11.40;;;5.10;;
12986;SDS011;58897;51.960;5.582;2024-01-06T02:13:59;10.77;;;5.57;;
12986;SDS011;58897;51.960;5.582;2024-01-06T02:16:27;8.73;;;5.10;;
12986;SDS011;58897;51.960;5.582;2024-01-06T02:18:54;14.47;;;6.30;;
12986;SDS011;58897;51.960;5.582;2024-01-06T02:21:22;15.47;;;6.30;;
12986;SDS011;58897;51.960;5.582;2024-01-06T02:23:50;13.27;;;6.30;;
12986;SDS011;58897;51.960;5.582;2024-01-06T02:26:17;16.90;;;6.43;;
12986;SDS011;58897;51.960;5.582;2024-01-06T02:28:44;10.27;;;5.00;;
12986;SDS011;58897;51.960;5.582;2024-01-06T02:31:14;11.63;;;6.17;;
12986;SDS011;58897;51.960;5.582;2024-01-06T02:33:42;13.67;;;5.47;;
12986;SDS011;58897;51.960;5.582;2024-01-06T02:36:09;14.10;;;5.90;;
12986;SDS011;58897;51.960;5.582;2024-01-06T02:38:36;14.47;;;6.00;;
12986;SDS011;58897;51.960;5.582;2024-01-06T02:41:03;14.93;;;5.90;;
12986;SDS011;58897;51.960;5.582;2024-01-06T02:43:30;14.80;;;5.80;;
12986;SDS011;58897;51.960;5.582;2024-01-06T02:45:57;13.07;;;5.53;;
12986;SDS011;58897;51.960;5.582;2024-01-06T02:48:24;16.37;;;5.83;;
12986;SDS011;58897;51.960;5.582;2024-01-06T02:50:51;11.87;;;5.60;;
12986;SDS011;58897;51.960;5.582;2024-01-06T02:53:18;12.80;;;5.67;;
12986;SDS011;58897;51.960;5.582;2024-01-06T02:55:45;13.50;;;5.80;;
12986;SDS011;58897;51.960;5.582;2024-01-06T02:58:12;13.03;;;5.57;;
12986;SDS011;58897;51.960;5.582;2024-01-06T03:00:39;15.27;;;6.70;;
12986;SDS011;58897;51.960;5.582;2024-01-06T03:03:06;14.03;;;5.67;;
12986;SDS011;58897;51.960;5.582;2024-01-06T03:05:33;10.87;;;5.10;;
12986;SDS011;58897;51.960;5.582;2024-01-06T03:08:00;15.37;;;5.87;;
12986;SDS011;58897;51.960;5.582;2024-01-06T03:10:27;11.90;;;5.63;;
12986;SDS011;58897;51.960;5.582;2024-01-06T03:12:54;17.97;;;6.97;;
12986;SDS011;58897;51.960;5.582;2024-01-06T03:15:22;9.73;;;5.10;;
12986;SDS011;58897;51.960;5.582;2024-01-06T03:17:49;14.43;;;6.40;;
12986;SDS011;58897;51.960;5.582;2024-01-06T03:20:16;13.73;;;5.93;;
12986;SDS011;58897;51.960;5.582;2024-01-06T03:22:45;13.20;;;6.10;;
12986;SDS011;58897;51.960;5.582;2024-01-06T03:25:13;15.67;;;6.43;;
12986;SDS011;58897;51.960;5.582;2024-01-06T03:27:40;9.87;;;4.77;;
12986;SDS011;58897;51.960;5.582;2024-01-06T03:30:10;9.57;;;4.83;;
12986;SDS011;58897;51.960;5.582;2024-01-06T03:32:37;9.40;;;5.23;;
12986;SDS011;58897;51.960;5.582;2024-01-06T03:35:05;10.63;;;5.23;;
12986;SDS011;58897;51.960;5.582;2024-01-06T03:37:33;10.27;;;5.17;;
12986;SDS011;58897;51.960;5.582;2024-01-06T03:40:03;14.50;;;5.97;;
12986;SDS011;58897;51.960;5.582;2024-01-06T03:42:30;13.40;;;5.57;;
12986;SDS011;58897;51.960;5.582;2024-01-06T03:44:57;12.20;;;5.50;;
12986;SDS011;58897;51.960;5.582;2024-01-06T03:47:25;11.80;;;4.73;;
12986;SDS011;58897;51.960;5.582;2024-01-06T03:49:52;12.70;;;5.93;;
12986;SDS011;58897;51.960;5.582;2024-01-06T03:52:19;9.67;;;4.80;;
12986;SDS011;58897;51.960;5.582;2024-01-06T03:54:51;10.17;;;5.43;;
12986;SDS011;58897;51.960;5.582;2024-01-06T03:57:19;11.03;;;5.20;;
12986;SDS011;58897;51.960;5.582;2024-01-06T03:59:48;14.03;;;5.60;;
12986;SDS011;58897;51.960;5.582;2024-01-06T04:02:18;9.37;;;5.00;;
12986;SDS011;58897;51.960;5.582;2024-01-06T04:04:45;13.03;;;6.10;;
12986;SDS011;58897;51.960;5.582;2024-01-06T04:07:13;10.80;;;5.90;;
12986;SDS011;58897;51.960;5.582;2024-01-06T04:09:41;12.20;;;5.97;;
12986;SDS011;58897;51.960;5.582;2024-01-06T04:12:10;13.73;;;6.43;;
12986;SDS011;58897;51.960;5.582;2024-01-06T04:14:37;11.50;;;5.83;;
12986;SDS011;58897;51.960;5.582;2024-01-06T04:17:04;15.37;;;6.27;;
12986;SDS011;58897;51.960;5.582;2024-01-06T04:19:31;15.00;;;6.33;;
12986;SDS011;58897;51.960;5.582;2024-01-06T04:22:01;13.73;;;6.60;;
12986;SDS011;58897;51.960;5.582;2024-01-06T04:24:28;13.40;;;5.83;;
12986;SDS011;58897;51.960;5.582;2024-01-06T04:26:58;23.03;;;7.20;;
12986;SDS011;58897;51.960;5.582;2024-01-06T04:29:25;17.40;;;7.23;;
12986;SDS011;58897;51.960;5.582;2024-01-06T04:31:53;11.40;;;5.40;;
12986;SDS011;58897;51.960;5.582;2024-01-06T04:34:20;12.63;;;6.33;;
12986;SDS011;58897;51.960;5.582;2024-01-06T04:36:47;23.73;;;7.90;;
12986;SDS011;58897;51.960;5.582;2024-01-06T04:39:17;18.63;;;6.93;;
12986;SDS011;58897;51.960;5.582;2024-01-06T04:41:44;11.27;;;6.00;;
12986;SDS011;58897;51.960;5.582;2024-01-06T04:44:20;14.83;;;6.50;;
12986;SDS011;58897;51.960;5.582;2024-01-06T04:46:50;15.73;;;6.90;;
12986;SDS011;58897;51.960;5.582;2024-01-06T04:49:17;16.80;;;6.87;;
12986;SDS011;58897;51.960;5.582;2024-01-06T04:51:45;13.67;;;6.27;;
12986;SDS011;58897;51.960;5.582;2024-01-06T04:54:12;15.97;;;6.93;;
12986;SDS011;58897;51.960;5.582;2024-01-06T04:56:41;14.07;;;5.97;;
12986;SDS011;58897;51.960;5.582;2024-01-06T04:59:08;13.67;;;6.10;;
12986;SDS011;58897;51.960;5.582;2024-01-06T05:01:38;12.30;;;5.87;;
12986;SDS011;58897;51.960;5.582;2024-01-06T05:04:05;14.00;;;6.07;;
12986;SDS011;58897;51.960;5.582;2024-01-06T05:06:33;12.20;;;5.37;;
12986;SDS011;58897;51.960;5.582;2024-01-06T05:09:01;11.07;;;4.77;;
12986;SDS011;58897;51.960;5.582;2024-01-06T05:11:28;11.93;;;4.87;;
12986;SDS011;58897;51.960;5.582;2024-01-06T05:13:55;12.37;;;4.47;;
12986;SDS011;58897;51.960;5.582;2024-01-06T05:16:22;9.13;;;3.60;;
12986;SDS011;58897;51.960;5.582;2024-01-06T05:18:49;10.77;;;4.80;;
12986;SDS011;58897;51.960;5.582;2024-01-06T05:21:17;10.00;;;4.30;;
12986;SDS011;58897;51.960;5.582;2024-01-06T05:23:44;11.57;;;4.60;;
12986;SDS011;58897;51.960;5.582;2024-01-06T05:26:18;8.67;;;4.67;;
12986;SDS011;58897;51.960;5.582;2024-01-06T05:28:45;10.37;;;4.57;;
12986;SDS011;58897;51.960;5.582;2024-01-06T05:31:13;16.13;;;5.80;;
12986;SDS011;58897;51.960;5.582;2024-01-06T05:33:41;12.23;;;5.13;;
12986;SDS011;58897;51.960;5.582;2024-01-06T05:36:11;12.27;;;5.00;;
12986;SDS011;58897;51.960;5.582;2024-01-06T05:38:39;11.30;;;4.87;;
12986;SDS011;58897;51.960;5.582;2024-01-06T05:41:05;9.20;;;4.03;;
12986;SDS011;58897;51.960;5.582;2024-01-06T05:43:33;7.43;;;4.30;;
12986;SDS011;58897;51.960;5.582;2024-01-06T05:45:59;13.50;;;5.17;;
12986;SDS011;58897;51.960;5.582;2024-01-06T05:48:27;12.00;;;4.80;;
12986;SDS011;58897;51.960;5.582;2024-01-06T05:50:54;12.40;;;4.93;;
12986;SDS011;58897;51.960;5.582;2024-01-06T05:53:21;10.67;;;4.43;;
12986;SDS011;58897;51.960;5.582;2024-01-06T05:55:48;9.30;;;4.93;;
12986;SDS011;58897;51.960;5.582;2024-01-06T05:58:15;10.90;;;5.07;;
12986;SDS011;58897;51.960;5.582;2024-01-06T06:00:42;8.13;;;4.53;;
12986;SDS011;58897;51.960;5.582;2024-01-06T06:03:09;10.20;;;4.90;;
12986;SDS011;58897;51.960;5.582;2024-01-06T06:05:39;7.63;;;4.73;;
12986;SDS011;58897;51.960;5.582;2024-01-06T06:08:09;8.10;;;4.83;;
12986;SDS011;58897;51.960;5.582;2024-01-06T06:10:36;11.77;;;4.80;;
12986;SDS011;58897;51.960;5.582;2024-01-06T06:13:29;7.97;;;4.70;;
12986;SDS011;58897;51.960;5.582;2024-01-06T06:16:02;8.37;;;4.77;;
12986;SDS011;58897;51.960;5.582;2024-01-06T06:18:34;9.17;;;4.83;;
12986;SDS011;58897;51.960;5.582;2024-01-06T06:21:02;13.43;;;5.67;;
12986;SDS011;58897;51.960;5.582;2024-01-06T06:23:30;15.50;;;5.80;;
12986;SDS011;58897;51.960;5.582;2024-01-06T06:25:58;10.90;;;4.97;;
12986;SDS011;58897;51.960;5.582;2024-01-06T06:28:29;9.60;;;4.60;;
12986;SDS011;58897;51.960;5.582;2024-01-06T06:30:57;10.77;;;5.10;;
12986;SDS011;58897;51.960;5.582;2024-01-06T06:33:24;11.03;;;4.77;;
12986;SDS011;58897;51.960;5.582;2024-01-06T06:36:00;14.73;;;5.80;;
12986;SDS011;58897;51.960;5.582;2024-01-06T06:38:30;12.33;;;5.23;;
12986;SDS011;58897;51.960;5.582;2024-01-06T06:40:57;10.83;;;5.10;;
12986;SDS011;58897;51.960;5.582;2024-01-06T06:43:25;7.20;;;4.50;;
12986;SDS011;58897;51.960;5.582;2024-01-06T06:45:52;12.63;;;5.00;;
12986;SDS011;58897;51.960;5.582;2024-01-06T06:48:19;10.93;;;4.30;;
12986;SDS011;58897;51.960;5.582;2024-01-06T06:50:46;8.77;;;5.53;;
12986;SDS011;58897;51.960;5.582;2024-01-06T06:53:13;19.90;;;6.97;;
12986;SDS011;58897;51.960;5.582;2024-01-06T06:55:40;10.60;;;5.77;;
12986;SDS011;58897;51.960;5.582;2024-01-06T06:58:07;12.83;;;5.93;;
12986;SDS011;58897;51.960;5.582;2024-01-06T07:00:34;13.10;;;5.70;;
12986;SDS011;58897;51.960;5.582;2024-01-06T07:03:02;14.50;;;5.87;;
12986;SDS011;58897;51.960;5.582;2024-01-06T07:05:29;10.07;;;5.47;;
12986;SDS011;58897;51.960;5.582;2024-01-06T07:08:02;10.50;;;5.10;;
12986;SDS011;58897;51.960;5.582;2024-01-06T07:10:29;11.00;;;4.80;;
12986;SDS011;58897;51.960;5.582;2024-01-06T07:12:56;20.43;;;7.07;;
12986;SDS011;58897;51.960;5.582;2024-01-06T07:15:24;13.70;;;5.60;;
12986;SDS011;58897;51.960;5.582;2024-01-06T07:18:02;12.63;;;5.40;;
12986;SDS011;58897;51.960;5.582;2024-01-06T07:20:32;9.90;;;5.20;;
12986;SDS011;58897;51.960;5.582;2024-01-06T07:23:04;14.40;;;5.83;;
12986;SDS011;58897;51.960;5.582;2024-01-06T07:25:31;10.87;;;4.83;;
12986;SDS011;58897;51.960;5.582;2024-01-06T07:27:59;8.83;;;4.73;;
12986;SDS011;58897;51.960;5.582;2024-01-06T07:30:26;18.20;;;5.87;;
12986;SDS011;58897;51.960;5.582;2024-01-06T07:32:56;16.20;;;5.97;;
12986;SDS011;58897;51.960;5.582;2024-01-06T07:35:23;10.13;;;4.77;;
12986;SDS011;58897;51.960;5.582;2024-01-06T07:37:50;9.87;;;4.63;;
12986;SDS011;58897;51.960;5.582;2024-01-06T07:40:17;10.93;;;4.73;;
12986;SDS011;58897;51.960;5.582;2024-01-06T07:42:46;9.50;;;4.23;;
12986;SDS011;58897;51.960;5.582;2024-01-06T07:45:15;10.00;;;4.90;;
12986;SDS011;58897;51.960;5.582;2024-01-06T07:47:43;11.77;;;4.90;;
12986;SDS011;58897;51.960;5.582;2024-01-06T07:50:10;9.57;;;5.00;;
12986;SDS011;58897;51.960;5.582;2024-01-06T07:52:36;14.87;;;5.73;;
12986;SDS011;58897;51.960;5.582;2024-01-06T07:55:04;8.73;;;4.70;;
12986;SDS011;58897;51.960;5.582;2024-01-06T07:57:31;8.77;;;4.57;;
12986;SDS011;58897;51.960;5.582;2024-01-06T07:59:58;10.00;;;4.77;;
12986;SDS011;58897;51.960;5.582;2024-01-06T08:02:33;7.37;;;4.13;;
12986;SDS011;58897;51.960;5.582;2024-01-06T08:05:00;10.83;;;4.80;;
12986;SDS011;58897;51.960;5.582;2024-01-06T08:07:27;7.83;;;4.30;;
12986;SDS011;58897;51.960;5.582;2024-01-06T08:09:54;9.70;;;4.67;;
12986;SDS011;58897;51.960;5.582;2024-01-06T08:12:24;17.73;;;6.37;;
12986;SDS011;58897;51.960;5.582;2024-01-06T08:14:52;7.27;;;4.20;;
12986;SDS011;58897;51.960;5.582;2024-01-06T08:17:20;8.53;;;4.53;;
12986;SDS011;58897;51.960;5.582;2024-01-06T08:19:48;14.63;;;5.20;;
12986;SDS011;58897;51.960;5.582;2024-01-06T08:22:16;12.07;;;5.33;;
12986;SDS011;58897;51.960;5.582;2024-01-06T08:24:43;7.03;;;4.33;;
12986;SDS011;58897;51.960;5.582;2024-01-06T08:27:10;10.43;;;4.97;;
12986;SDS011;58897;51.960;5.582;2024-01-06T08:29:37;12.23;;;4.93;;
12986;SDS011;58897;51.960;5.582;2024-01-06T08:32:06;10.03;;;4.57;;
12986;SDS011;58897;51.960;5.582;2024-01-06T08:34:37;11.50;;;5.13;;
12986;SDS011;58897;51.960;5.582;2024-01-06T08:37:04;12.43;;;5.00;;
12986;SDS011;58897;51.960;5.582;2024-01-06T08:39:31;15.47;;;5.20;;
12986;SDS011;58897;51.960;5.582;2024-01-06T08:41:58;11.57;;;5.43;;
12986;SDS011;58897;51.960;5.582;2024-01-06T08:44:27;12.50;;;5.23;;
12986;SDS011;58897;51.960;5.582;2024-01-06T08:46:55;13.83;;;5.40;;
12986;SDS011;58897;51.960;5.582;2024-01-06T08:49:22;13.03;;;5.17;;
12986;SDS011;58897;51.960;5.582;2024-01-06T08:51:49;9.30;;;4.90;;
12986;SDS011;58897;51.960;5.582;2024-01-06T08:54:16;11.43;;;5.27;;
12986;SDS011;58897;51.960;5.582;2024-01-06T08:56:43;10.83;;;5.47;;
12986;SDS011;58897;51.960;5.582;2024-01-06T08:59:11;10.00;;;5.17;;
12986;SDS011;58897;51.960;5.582;2024-01-06T09:01:38;9.23;;;5.00;;
12986;SDS011;58897;51.960;5.582;2024-01-06T09:04:05;14.53;;;5.47;;
12986;SDS011;58897;51.960;5.582;2024-01-06T09:06:33;14.33;;;5.73;;
12986;SDS011;58897;51.960;5.582;2024-01-06T09:09:00;15.07;;;6.23;;
12986;SDS011;58897;51.960;5.582;2024-01-06T09:11:27;17.07;;;6.47;;
12986;SDS011;58897;51.960;5.582;2024-01-06T09:13:57;11.90;;;5.37;;
12986;SDS011;58897;51.960;5.582;2024-01-06T09:16:24;13.73;;;5.50;;
12986;SDS011;58897;51.960;5.582;2024-01-06T09:18:51;13.37;;;5.87;;
12986;SDS011;58897;51.960;5.582;2024-01-06T09:21:17;14.30;;;5.90;;
12986;SDS011;58897;51.960;5.582;2024-01-06T09:23:44;15.30;;;6.13;;
12986;SDS011;58897;51.960;5.582;2024-01-06T09:26:11;12.87;;;6.27;;
12986;SDS011;58897;51.960;5.582;2024-01-06T09:28:38;11.27;;;5.27;;
12986;SDS011;58897;51.960;5.582;2024-01-06T09:31:06;14.10;;;5.90;;
12986;SDS011;58897;51.960;5.582;2024-01-06T09:33:33;11.20;;;4.63;;
12986;SDS011;58897;51.960;5.582;2024-01-06T09:36:01;14.03;;;6.60;;
12986;SDS011;58897;51.960;5.582;2024-01-06T09:38:28;10.73;;;5.37;;
12986;SDS011;58897;51.960;5.582;2024-01-06T09:40:56;11.47;;;4.80;;
12986;SDS011;58897;51.960;5.582;2024-01-06T09:43:24;8.63;;;4.63;;
12986;SDS011;58897;51.960;5.582;2024-01-06T09:46:04;10.43;;;4.43;;
12986;SDS011;58897;51.960;5.582;2024-01-06T09:48:40;24.77;;;5.90;;
12986;SDS011;58897;51.960;5.582;2024-01-06T09:51:11;23.57;;;6.80;;
12986;SDS011;58897;51.960;5.582;2024-01-06T09:54:12;11.73;;;5.47;;
12986;SDS011;58897;51.960;5.582;2024-01-06T09:56:34;18.77;;;6.87;;
12986;SDS011;58897;51.960;5.582;2024-01-06T09:59:05;11.07;;;5.33;;
12986;SDS011;58897;51.960;5.582;2024-01-06T10:01:33;14.50;;;5.27;;
12986;SDS011;58897;51.960;5.582;2024-01-06T10:04:00;12.60;;;5.50;;
12986;SDS011;58897;51.960;5.582;2024-01-06T10:06:27;13.10;;;5.20;;
12986;SDS011;58897;51.960;5.582;2024-01-06T10:08:54;15.70;;;5.73;;
12986;SDS011;58897;51.960;5.582;2024-01-06T10:11:27;14.87;;;5.47;;
12986;SDS011;58897;51.960;5.582;2024-01-06T10:13:57;10.50;;;5.33;;
12986;SDS011;58897;51.960;5.582;2024-01-06T10:16:23;8.13;;;4.37;;
12986;SDS011;58897;51.960;5.582;2024-01-06T10:18:50;12.20;;;5.27;;
12986;SDS011;58897;51.960;5.582;2024-01-06T10:21:20;14.33;;;6.07;;
12986;SDS011;58897;51.960;5.582;2024-01-06T10:23:49;10.67;;;5.40;;
12986;SDS011;58897;51.960;5.582;2024-01-06T10:26:22;10.37;;;4.80;;
12986;SDS011;58897;51.960;5.582;2024-01-06T10:28:49;14.30;;;6.03;;
12986;SDS011;58897;51.960;5.582;2024-01-06T10:31:18;15.33;;;5.90;;
12986;SDS011;58897;51.960;5.582;2024-01-06T10:33:54;10.80;;;5.40;;
12986;SDS011;58897;51.960;5.582;2024-01-06T10:36:25;8.93;;;5.47;;
12986;SDS011;58897;51.960;5.582;2024-01-06T10:38:58;9.27;;;5.40;;
12986;SDS011;58897;51.960;5.582;2024-01-06T10:41:28;11.70;;;5.57;;
12986;SDS011;58897;51.960;5.582;2024-01-06T10:43:59;13.30;;;5.83;;
12986;SDS011;58897;51.960;5.582;2024-01-06T10:46:27;15.63;;;6.13;;
12986;SDS011;58897;51.960;5.582;2024-01-06T10:48:58;13.47;;;5.53;;
12986;SDS011;58897;51.960;5.582;2024-01-06T10:51:27;15.83;;;7.60;;
12986;SDS011;58897;51.960;5.582;2024-01-06T10:53:56;11.90;;;6.53;;
12986;SDS011;58897;51.960;5.582;2024-01-06T10:56:36;17.90;;;7.80;;
12986;SDS011;58897;51.960;5.582;2024-01-06T10:59:07;15.23;;;6.43;;
12986;SDS011;58897;51.960;5.582;2024-01-06T11:01:36;12.80;;;6.00;;
12986;SDS011;58897;51.960;5.582;2024-01-06T11:04:07;11.57;;;6.00;;
12986;SDS011;58897;51.960;5.582;2024-01-06T11:06:34;13.17;;;5.90;;
12986;SDS011;58897;51.960;5.582;2024-01-06T11:11:40;21.27;;;7.90;;
12986;SDS011;58897;51.960;5.582;2024-01-06T11:14:26;16.00;;;6.63;;
12986;SDS011;58897;51.960;5.582;2024-01-06T11:16:59;12.17;;;5.87;;
12986;SDS011;58897;51.960;5.582;2024-01-06T11:24:56;13.70;;;6.30;;
12986;SDS011;58897;51.960;5.582;2024-01-06T11:27:30;11.23;;;5.47;;
12986;SDS011;58897;51.960;5.582;2024-01-06T11:30:03;10.33;;;5.37;;
12986;SDS011;58897;51.960;5.582;2024-01-06T11:32:35;16.77;;;6.07;;
12986;SDS011;58897;51.960;5.582;2024-01-06T11:35:07;13.43;;;5.93;;
12986;SDS011;58897;51.960;5.582;2024-01-06T11:45:49;11.37;;;5.40;;
12986;SDS011;58897;51.960;5.582;2024-01-06T11:48:41;13.77;;;5.93;;
12986;SDS011;58897;51.960;5.582;2024-01-06T11:51:32;16.00;;;5.40;;
12986;SDS011;58897;51.960;5.582;2024-01-06T11:54:02;28.27;;;7.50;;
12986;SDS011;58897;51.960;5.582;2024-01-06T11:56:43;24.97;;;7.33;;
12986;SDS011;58897;51.960;5.582;2024-01-06T11:59:24;36.90;;;8.67;;
12986;SDS011;58897;51.960;5.582;2024-01-06T12:02:35;32.03;;;9.10;;
12986;SDS011;58897;51.960;5.582;2024-01-06T12:05:19;28.40;;;8.17;;
12986;SDS011;58897;51.960;5.582;2024-01-06T12:08:02;9.43;;;4.73;;
12986;SDS011;58897;51.960;5.582;2024-01-06T12:10:34;10.40;;;4.77;;
12986;SDS011;58897;51.960;5.582;2024-01-06T12:13:19;10.77;;;4.70;;
12986;SDS011;58897;51.960;5.582;2024-01-06T12:15:45;11.37;;;5.17;;
12986;SDS011;58897;51.960;5.582;2024-01-06T12:18:12;11.30;;;5.40;;
12986;SDS011;58897;51.960;5.582;2024-01-06T12:20:41;12.03;;;5.37;;
12986;SDS011;58897;51.960;5.582;2024-01-06T12:23:08;10.87;;;5.33;;
12986;SDS011;58897;51.960;5.582;2024-01-06T12:25:35;10.77;;;5.30;;
12986;SDS011;58897;51.960;5.582;2024-01-06T12:28:06;9.27;;;4.90;;
12986;SDS011;58897;51.960;5.582;2024-01-06T12:30:33;16.00;;;5.87;;
12986;SDS011;58897;51.960;5.582;2024-01-06T12:33:01;15.83;;;6.47;;
12986;SDS011;58897;51.960;5.582;2024-01-06T12:35:28;14.53;;;6.10;;
12986;SDS011;58897;51.960;5.582;2024-01-06T12:37:55;8.47;;;4.60;;
12986;SDS011;58897;51.960;5.582;2024-01-06T12:40:22;9.43;;;5.30;;
12986;SDS011;58897;51.960;5.582;2024-01-06T12:42:51;11.67;;;5.97;;
12986;SDS011;58897;51.960;5.582;2024-01-06T12:45:23;8.47;;;5.10;;
12986;SDS011;58897;51.960;5.582;2024-01-06T12:47:50;16.80;;;6.97;;
12986;SDS011;58897;51.960;5.582;2024-01-06T12:50:19;12.33;;;4.93;;
12986;SDS011;58897;51.960;5.582;2024-01-06T12:52:49;10.73;;;5.53;;
12986;SDS011;58897;51.960;5.582;2024-01-06T12:55:18;14.37;;;6.30;;
12986;SDS011;58897;51.960;5.582;2024-01-06T12:57:47;17.37;;;7.40;;
12986;SDS011;58897;51.960;5.582;2024-01-06T13:00:14;13.20;;;6.67;;
12986;SDS011;58897;51.960;5.582;2024-01-06T13:02:46;16.67;;;6.80;;
12986;SDS011;58897;51.960;5.582;2024-01-06T13:05:13;17.97;;;7.60;;
12986;SDS011;58897;51.960;5.582;2024-01-06T13:07:46;17.20;;;6.70;;
12986;SDS011;58897;51.960;5.582;2024-01-06T13:10:16;11.07;;;5.97;;
12986;SDS011;58897;51.960;5.582;2024-01-06T13:12:48;14.30;;;6.90;;
12986;SDS011;58897;51.960;5.582;2024-01-06T13:15:19;21.70;;;7.40;;
12986;SDS011;58897;51.960;5.582;2024-01-06T13:17:51;14.67;;;6.57;;
12986;SDS011;58897;51.960;5.582;2024-01-06T13:20:24;13.40;;;6.60;;
12986;SDS011;58897;51.960;5.582;2024-01-06T13:22:51;22.03;;;7.97;;
12986;SDS011;58897;51.960;5.582;2024-01-06T13:25:22;12.60;;;6.10;;
12986;SDS011;58897;51.960;5.582;2024-01-06T13:27:49;17.53;;;7.70;;
12986;SDS011;58897;51.960;5.582;2024-01-06T13:30:18;14.87;;;6.73;;
12986;SDS011;58897;51.960;5.582;2024-01-06T13:32:54;19.87;;;7.50;;
12986;SDS011;58897;51.960;5.582;2024-01-06T13:35:24;16.13;;;6.90;;
12986;SDS011;58897;51.960;5.582;2024-01-06T13:37:55;14.67;;;7.00;;
12986;SDS011;58897;51.960;5.582;2024-01-06T13:40:24;14.03;;;7.40;;
12986;SDS011;58897;51.960;5.582;2024-01-06T13:42:54;21.03;;;8.53;;
12986;SDS011;58897;51.960;5.582;2024-01-06T13:45:24;14.80;;;6.73;;
12986;SDS011;58897;51.960;5.582;2024-01-06T13:47:53;18.17;;;7.83;;
12986;SDS011;58897;51.960;5.582;2024-01-06T13:50:21;18.40;;;7.10;;
12986;SDS011;58897;51.960;5.582;2024-01-06T13:52:59;23.50;;;9.03;;
12986;SDS011;58897;51.960;5.582;2024-01-06T13:55:31;14.27;;;7.17;;
12986;SDS011;58897;51.960;5.582;2024-01-06T13:58:02;12.83;;;6.47;;
12986;SDS011;58897;51.960;5.582;2024-01-06T14:00:34;13.90;;;6.47;;
12986;SDS011;58897;51.960;5.582;2024-01-06T14:03:07;26.70;;;9.10;;
12986;SDS011;58897;51.960;5.582;2024-01-06T14:05:34;17.57;;;7.33;;
12986;SDS011;58897;51.960;5.582;2024-01-06T14:08:01;20.43;;;7.70;;
12986;SDS011;58897;51.960;5.582;2024-01-06T14:10:33;15.37;;;7.27;;
12986;SDS011;58897;51.960;5.582;2024-01-06T14:13:01;37.60;;;11.20;;
12986;SDS011;58897;51.960;5.582;2024-01-06T14:15:33;22.13;;;8.13;;
12986;SDS011;58897;51.960;5.582;2024-01-06T14:18:03;17.73;;;7.30;;
12986;SDS011;58897;51.960;5.582;2024-01-06T14:20:33;16.73;;;6.97;;
12986;SDS011;58897;51.960;5.582;2024-01-06T14:23:07;22.57;;;8.37;;
12986;SDS011;58897;51.960;5.582;2024-01-06T14:25:36;21.87;;;8.03;;
12986;SDS011;58897;51.960;5.582;2024-01-06T14:28:09;25.13;;;8.10;;
12986;SDS011;58897;51.960;5.582;2024-01-06T14:30:36;23.37;;;8.27;;
12986;SDS011;58897;51.960;5.582;2024-01-06T14:33:03;30.97;;;9.93;;
12986;SDS011;58897;51.960;5.582;2024-01-06T14:35:30;20.43;;;8.07;;
12986;SDS011;58897;51.960;5.582;2024-01-06T14:38:00;29.87;;;9.50;;
12986;SDS011;58897;51.960;5.582;2024-01-06T14:40:30;14.77;;;6.30;;
12986;SDS011;58897;51.960;5.582;2024-01-06T14:42:57;23.23;;;8.13;;
12986;SDS011;58897;51.960;5.582;2024-01-06T14:45:33;14.63;;;6.43;;
12986;SDS011;58897;51.960;5.582;2024-01-06T14:48:05;23.97;;;8.07;;
12986;SDS011;58897;51.960;5.582;2024-01-06T14:50:37;29.77;;;7.53;;
12986;SDS011;58897;51.960;5.582;2024-01-06T14:53:07;27.10;;;8.20;;
12986;SDS011;58897;51.960;5.582;2024-01-06T14:55:37;13.10;;;6.70;;
12986;SDS011;58897;51.960;5.582;2024-01-06T14:58:04;14.63;;;6.70;;
12986;SDS011;58897;51.960;5.582;2024-01-06T15:00:35;16.13;;;7.30;;
12986;SDS011;58897;51.960;5.582;2024-01-06T15:03:16;14.80;;;6.10;;